Time;durP1;ratioP1;P1;durP2;ratioP2;P2;SDS_P1;SDS_P2;PMS_P1;PMS_P2;Temp;Humidity;BMP_temperature;BMP_pressure;BME280_temperature;BME280_humidity;BME280_pressure;Samples;Min_cycle;Max_cycle;Signal;HPM_P1;HPM_P2
2021/03/04 00:02:20;;;;;;;117.43;51.13;;;6.50;95.10;;;;;;5064069;28;20098;-39
2021/03/04 00:04:46;;;;;;;146.48;59.78;;;6.50;95.20;;;;;;5065124;28;20055;-39
2021/03/04 00:07:11;;;;;;;132.13;56.15;;;6.40;95.30;;;;;;5064588;28;20178;-36
2021/03/04 00:09:37;;;;;;;123.32;52.95;;;6.40;95.40;;;;;;5064354;28;20021;-38
2021/03/04 00:12:03;;;;;;;126.40;56.20;;;6.30;95.40;;;;;;5064876;28;20158;-38
2021/03/04 00:14:28;;;;;;;130.18;57.03;;;6.30;95.50;;;;;;5064822;28;20029;-42
2021/03/04 00:16:54;;;;;;;112.03;50.78;;;6.30;95.50;;;;;;5063880;28;20645;-39
2021/03/04 00:19:20;;;;;;;104.75;45.80;;;6.30;95.60;;;;;;5064793;28;20154;-39
2021/03/04 00:21:45;;;;;;;114.10;51.22;;;6.30;95.70;;;;;;5064199;28;20017;-38
2021/03/04 00:24:11;;;;;;;104.47;48.63;;;6.30;95.60;;;;;;5064210;28;20036;-40
2021/03/04 00:26:36;;;;;;;108.38;48.70;;;6.30;95.60;;;;;;5065095;28;20480;-40
2021/03/04 00:29:03;;;;;;;102.72;47.78;;;6.40;95.60;;;;;;5064483;28;20032;-38
2021/03/04 00:31:28;;;;;;;107.72;47.53;;;6.30;95.60;;;;;;5064382;28;20553;-39
2021/03/04 00:33:54;;;;;;;106.80;48.75;;;6.40;95.60;;;;;;5064428;28;20139;-39
2021/03/04 00:36:20;;;;;;;101.65;45.42;;;6.30;95.60;;;;;;5064535;28;20071;-37
2021/03/04 00:38:45;;;;;;;86.72;40.97;;;6.30;95.60;;;;;;5063905;28;20032;-38
2021/03/04 00:41:14;;;;;;;101.10;47.50;;;6.30;95.60;;;;;;5064927;28;20047;-38
2021/03/04 00:43:39;;;;;;;100.68;46.67;;;6.20;95.80;;;;;;5063758;28;20043;-40
2021/03/04 00:46:08;;;;;;;113.72;48.58;;;6.20;96.00;;;;;;5064441;28;20444;-38
2021/03/04 00:48:33;;;;;;;114.47;51.45;;;6.10;96.00;;;;;;5064685;28;20040;-39
2021/03/04 00:50:59;;;;;;;111.55;49.20;;;6.10;96.00;;;;;;5067579;28;20024;-38
2021/03/04 00:53:27;;;;;;;118.60;51.15;;;6.10;96.00;;;;;;5068427;28;20069;-39
2021/03/04 00:55:56;;;;;;;113.10;48.42;;;6.10;96.00;;;;;;5068756;28;20115;-39
2021/03/04 00:58:21;;;;;;;114.95;51.08;;;6.10;96.00;;;;;;5067828;28;20020;-39
2021/03/04 01:00:47;;;;;;;135.60;54.95;;;6.10;96.00;;;;;;5068333;28;20244;-40
2021/03/04 01:03:12;;;;;;;113.70;49.53;;;6.10;96.10;;;;;;5068588;28;20068;-38
2021/03/04 01:05:38;;;;;;;102.85;46.03;;;6.00;96.10;;;;;;5067753;28;20023;-40
2021/03/04 01:08:04;;;;;;;116.90;49.47;;;6.00;96.20;;;;;;5068526;28;20468;-38
2021/03/04 01:10:36;;;;;;;122.35;49.95;;;6.10;96.30;;;;;;5068134;28;20118;-39
2021/03/04 01:13:04;;;;;;;109.95;47.38;;;6.00;96.20;;;;;;5067957;28;20075;-37
2021/03/04 01:15:31;;;;;;;98.55;44.75;;;6.10;96.30;;;;;;5067763;28;20008;-39
2021/03/04 01:17:57;;;;;;;100.43;44.53;;;6.00;96.30;;;;;;5068826;28;20115;-38
2021/03/04 01:20:24;;;;;;;100.38;45.30;;;6.00;96.30;;;;;;5067441;28;20031;-39
2021/03/04 01:22:52;;;;;;;97.28;44.08;;;6.00;96.30;;;;;;5067799;28;20781;-37
2021/03/04 01:25:19;;;;;;;90.68;39.58;;;6.00;96.30;;;;;;5067945;28;20029;-38
2021/03/04 01:27:44;;;;;;;100.13;41.72;;;6.10;96.30;;;;;;5067345;28;20024;-39
2021/03/04 01:30:12;;;;;;;86.93;39.28;;;6.10;96.30;;;;;;5067476;28;20108;-38
2021/03/04 01:32:38;;;;;;;99.90;42.47;;;6.10;96.30;;;;;;5067999;28;20144;-38
2021/03/04 01:35:06;;;;;;;107.72;45.35;;;6.20;96.30;;;;;;5067130;28;20535;-39
2021/03/04 01:37:32;;;;;;;92.03;41.88;;;6.20;96.10;;;;;;5067705;28;20032;-39
2021/03/04 01:39:57;;;;;;;87.53;40.28;;;6.10;96.10;;;;;;5067354;28;20036;-39
2021/03/04 01:42:23;;;;;;;85.80;40.25;;;6.10;96.10;;;;;;5067696;28;20226;-39
2021/03/04 01:44:48;;;;;;;84.30;38.72;;;6.10;96.10;;;;;;5067236;28;20074;-38
2021/03/04 01:47:21;;;;;;;87.60;38.88;;;6.10;96.10;;;;;;5067892;28;20093;-39
2021/03/04 01:49:47;;;;;;;86.13;39.17;;;6.10;96.10;;;;;;5067581;28;20032;-38
2021/03/04 01:52:13;;;;;;;91.80;41.72;;;6.10;96.10;;;;;;5067502;28;20052;-39
2021/03/04 01:54:39;;;;;;;94.63;42.10;;;6.00;96.00;;;;;;5066989;28;20024;-38
2021/03/04 01:57:05;;;;;;;92.60;40.47;;;6.00;96.00;;;;;;5067315;28;20059;-39
2021/03/04 01:59:31;;;;;;;80.80;35.58;;;6.00;96.00;;;;;;5067713;28;20029;-37
2021/03/04 02:01:56;;;;;;;94.35;41.33;;;6.00;96.10;;;;;;5066863;28;20025;-38
2021/03/04 02:04:22;;;;;;;82.85;37.72;;;5.90;96.00;;;;;;5067190;28;20028;-40
2021/03/04 02:07:20;;;;;;;77.35;36.53;;;5.90;96.00;;;;;;5067287;28;20100;-38
2021/03/04 02:09:54;;;;;;;74.93;34.65;;;6.00;96.10;;;;;;5067584;28;20362;-36
2021/03/04 02:12:27;;;;;;;73.03;35.17;;;5.90;96.10;;;;;;5066532;28;20558;-39
2021/03/04 02:14:53;;;;;;;;;;;6.00;96.00;;;;;;5067883;28;20054;-38
2021/03/04 02:17:23;;;;;;;66.85;32.17;;;5.90;96.00;;;;;;5067246;28;19977;-40
2021/03/04 02:19:59;;;;;;;74.25;34.33;;;5.90;96.00;;;;;;5066911;28;20048;-40
2021/03/04 02:22:44;;;;;;;71.75;34.83;;;5.90;96.00;;;;;;5065932;28;20135;-38
2021/03/04 02:25:16;;;;;;;68.20;32.75;;;5.80;96.00;;;;;;5067251;28;20028;-39
2021/03/04 02:27:42;;;;;;;64.10;29.50;;;5.80;96.00;;;;;;5066337;28;20025;-37
2021/03/04 02:30:18;;;;;;;71.22;33.72;;;5.90;96.00;;;;;;5066118;28;20047;-44
2021/03/04 02:32:47;;;;;;;66.55;32.40;;;5.80;96.00;;;;;;5065989;28;20455;-38
2021/03/04 02:35:18;;;;;;;65.88;31.25;;;5.80;95.90;;;;;;5066631;28;20036;-37
2021/03/04 02:37:51;;;;;;;60.92;28.42;;;5.80;96.00;;;;;;5065869;28;20060;-39
2021/03/04 02:40:19;;;;;;;70.03;33.53;;;5.80;96.00;;;;;;5046389;28;20029;-40
2021/03/04 02:42:45;;;;;;;64.55;31.45;;;5.80;96.00;;;;;;5060994;28;20032;-39
2021/03/04 02:45:12;;;;;;;68.22;32.22;;;5.80;95.90;;;;;;5066260;28;20154;-40
2021/03/04 02:47:41;;;;;;;65.53;33.13;;;5.80;96.10;;;;;;5066291;28;20104;-39
2021/03/04 02:50:08;;;;;;;69.53;33.90;;;5.80;95.80;;;;;;5066090;28;20044;-39
2021/03/04 02:52:35;;;;;;;63.47;33.22;;;5.70;95.70;;;;;;5065879;28;20427;-37
2021/03/04 02:55:02;;;;;;;71.82;34.97;;;5.70;95.70;;;;;;5066400;28;20754;-39
2021/03/04 02:57:29;;;;;;;76.97;35.67;;;5.70;95.80;;;;;;5066260;28;20095;-39
2021/03/04 02:59:58;;;;;;;74.07;34.08;;;5.60;95.80;;;;;;5066645;28;20024;-39
2021/03/04 03:02:25;;;;;;;61.95;30.17;;;5.60;95.80;;;;;;5065698;28;20024;-38
2021/03/04 03:04:53;;;;;;;58.35;29.65;;;5.60;95.90;;;;;;5065437;28;20025;-39
2021/03/04 03:07:19;;;;;;;57.42;29.52;;;5.60;95.90;;;;;;5066106;28;20038;-39
2021/03/04 03:09:45;;;;;;;57.13;28.20;;;5.60;95.90;;;;;;5065793;28;20443;-39
2021/03/04 03:12:18;;;;;;;53.90;27.42;;;5.70;95.90;;;;;;5065226;28;20051;-38
2021/03/04 03:14:45;;;;;;;55.38;27.80;;;5.70;95.90;;;;;;5062293;28;20029;-38
2021/03/04 03:17:11;;;;;;;67.57;32.67;;;5.80;95.90;;;;;;5065870;28;20453;-38
2021/03/04 03:19:36;;;;;;;64.00;29.23;;;5.70;95.80;;;;;;5064914;28;20031;-39
2021/03/04 03:22:02;;;;;;;68.88;32.25;;;5.70;95.90;;;;;;5065903;28;20032;-37
2021/03/04 03:24:28;;;;;;;72.90;34.47;;;5.70;95.90;;;;;;5065672;28;20131;-39
2021/03/04 03:26:54;;;;;;;80.55;38.75;;;5.70;95.80;;;;;;5065323;28;20157;-39
2021/03/04 03:29:20;;;;;;;69.20;33.75;;;5.70;95.70;;;;;;5065343;28;20453;-39
2021/03/04 03:31:49;;;;;;;82.32;36.22;;;5.60;95.70;;;;;;5065253;28;20532;-38
2021/03/04 03:34:15;;;;;;;74.47;35.35;;;5.60;95.80;;;;;;5064882;28;20059;-39
2021/03/04 03:36:42;;;;;;;80.38;36.92;;;5.50;95.80;;;;;;5065491;28;20058;-39
2021/03/04 03:39:09;;;;;;;76.22;34.90;;;5.40;95.90;;;;;;5065251;28;20025;-38
2021/03/04 03:41:38;;;;;;;82.22;35.72;;;5.40;96.00;;;;;;5065205;28;20066;-39
2021/03/04 03:44:04;;;;;;;69.00;34.22;;;5.40;96.00;;;;;;5065099;28;20586;-38
2021/03/04 03:46:32;;;;;;;74.18;33.95;;;5.40;96.10;;;;;;5064628;28;20063;-39
2021/03/04 03:49:02;;;;;;;75.78;35.80;;;5.40;96.20;;;;;;5065514;28;20107;-39
2021/03/04 03:51:30;;;;;;;77.63;35.55;;;5.40;96.20;;;;;;5065016;28;20173;-38
2021/03/04 03:53:58;;;;;;;67.75;33.00;;;5.30;96.20;;;;;;5065104;28;20162;-39
2021/03/04 03:56:24;;;;;;;65.57;29.92;;;5.40;96.30;;;;;;5065560;28;20028;-39
2021/03/04 03:58:50;;;;;;;69.88;32.33;;;5.40;96.30;;;;;;5065095;28;20024;-38
2021/03/04 04:01:17;;;;;;;68.75;33.88;;;5.40;96.30;;;;;;5064340;28;20031;-38
2021/03/04 04:03:42;;;;;;;72.32;34.05;;;5.40;96.30;;;;;;5065045;28;20419;-39
2021/03/04 04:06:08;;;;;;;67.53;32.78;;;5.40;96.20;;;;;;5064487;28;20559;-39
2021/03/04 04:08:37;;;;;;;76.85;35.55;;;5.40;96.20;;;;;;5064645;28;20098;-38
2021/03/04 04:11:03;;;;;;;75.53;32.60;;;5.40;96.20;;;;;;5064719;28;20028;-41
2021/03/04 04:13:28;;;;;;;76.68;34.10;;;5.40;96.20;;;;;;5065841;28;20405;-39
2021/03/04 04:15:54;;;;;;;69.18;32.58;;;5.40;96.20;;;;;;5064291;28;20020;-38
2021/03/04 04:18:20;;;;;;;73.82;33.03;;;5.40;96.30;;;;;;5064895;28;20032;-37
2021/03/04 04:20:47;;;;;;;78.72;33.65;;;5.40;96.30;;;;;;5064720;28;20023;-38
2021/03/04 04:23:13;;;;;;;74.43;34.80;;;5.40;96.30;;;;;;5064440;28;20024;-38
2021/03/04 04:25:51;;;;;;;64.43;30.25;;;5.40;96.30;;;;;;5064175;28;20033;-39
2021/03/04 04:28:17;;;;;;;73.40;34.28;;;5.40;96.30;;;;;;5064827;28;20054;-38
2021/03/04 04:30:42;;;;;;;68.85;31.40;;;5.40;96.40;;;;;;5063762;28;20090;-38
2021/03/04 04:33:08;;;;;;;67.60;32.00;;;5.40;96.30;;;;;;5064219;28;20036;-41
2021/03/04 04:35:34;;;;;;;78.60;36.40;;;5.30;96.40;;;;;;5064088;28;20025;-38
2021/03/04 04:37:59;;;;;;;80.70;36.60;;;5.30;96.30;;;;;;5064668;28;20460;-38
2021/03/04 04:40:25;;;;;;;80.72;36.22;;;5.30;96.30;;;;;;5064353;28;20032;-37
2021/03/04 04:42:50;;;;;;;87.55;39.13;;;5.30;96.40;;;;;;5064036;28;20158;-37
2021/03/04 04:45:16;;;;;;;81.20;35.70;;;5.30;96.40;;;;;;5064169;28;20063;-40
2021/03/04 04:47:41;;;;;;;75.93;35.03;;;5.30;96.40;;;;;;5064179;28;20123;-39
2021/03/04 04:50:07;;;;;;;77.88;34.10;;;5.30;96.50;;;;;;5064030;28;20039;-38
2021/03/04 04:52:33;;;;;;;75.40;35.05;;;5.30;96.50;;;;;;5063932;28;20084;-39
2021/03/04 04:54:59;;;;;;;76.53;34.38;;;5.30;96.50;;;;;;5064682;28;20040;-40
2021/03/04 04:57:25;;;;;;;72.18;31.45;;;5.30;96.50;;;;;;5063883;28;20029;-41
2021/03/04 04:59:53;;;;;;;69.00;30.95;;;5.30;96.50;;;;;;5064209;28;20024;-39
2021/03/04 05:02:18;;;;;;;66.00;30.02;;;5.30;96.60;;;;;;5064120;28;20017;-39
2021/03/04 05:04:50;;;;;;;60.85;29.05;;;5.30;96.50;;;;;;5064318;28;20032;-39
2021/03/04 05:07:15;;;;;;;69.15;32.55;;;5.30;96.50;;;;;;5064174;28;20098;-38
2021/03/04 05:09:41;;;;;;;67.38;30.63;;;5.40;96.50;;;;;;5063965;28;20032;-38
2021/03/04 05:12:07;;;;;;;66.72;29.95;;;5.40;96.50;;;;;;5063337;28;20425;-39
2021/03/04 05:14:32;;;;;;;63.40;29.85;;;5.40;96.40;;;;;;5064239;28;20096;-38
2021/03/04 05:16:58;;;;;;;60.92;28.88;;;5.40;96.40;;;;;;5064159;28;20077;-38
2021/03/04 05:19:23;;;;;;;62.70;28.58;;;5.50;96.40;;;;;;5063785;28;20017;-37
2021/03/04 05:21:55;;;;;;;55.45;28.45;;;5.40;96.60;;;;;;5064238;28;20025;-38
2021/03/04 05:24:20;;;;;;;63.80;27.08;;;5.50;96.40;;;;;;5063863;28;20052;-40
2021/03/04 05:26:47;;;;;;;66.10;29.80;;;5.50;96.30;;;;;;5063453;28;20059;-41
2021/03/04 05:29:12;;;;;;;60.50;28.05;;;5.50;96.30;;;;;;5064282;28;20027;-40
2021/03/04 05:31:38;;;;;;;65.25;29.50;;;5.50;96.30;;;;;;5064453;28;20029;-38
2021/03/04 05:34:04;;;;;;;59.97;28.05;;;5.50;96.30;;;;;;5063295;28;20047;-40
2021/03/04 05:36:29;;;;;;;61.72;28.52;;;5.40;96.30;;;;;;5064507;28;20036;-38
2021/03/04 05:38:55;;;;;;;65.38;31.65;;;5.50;96.30;;;;;;5067449;28;20400;-38
2021/03/04 05:41:22;;;;;;;63.78;31.23;;;5.40;96.20;;;;;;5067609;28;20375;-39
2021/03/04 05:43:48;;;;;;;63.90;29.77;;;5.40;96.20;;;;;;5067151;28;20050;-39
2021/03/04 05:46:15;;;;;;;71.05;32.00;;;5.40;96.20;;;;;;5067614;28;20106;-40
2021/03/04 05:48:48;;;;;;;66.10;31.77;;;5.40;96.10;;;;;;5067146;28;20056;-33
2021/03/04 05:51:14;;;;;;;;;;;5.40;96.20;;;;;;5067885;28;20491;-42
2021/03/04 05:53:45;;;;;;;56.53;27.17;;;5.40;96.20;;;;;;5066854;28;19920;-39
2021/03/04 05:56:14;;;;;;;54.95;26.33;;;5.30;96.20;;;;;;5067155;28;20397;-39
2021/03/04 05:58:43;;;;;;;59.15;27.73;;;5.30;96.20;;;;;;5067321;28;20094;-39
2021/03/04 06:01:11;;;;;;;69.03;32.83;;;5.30;96.30;;;;;;5066989;28;20029;-40
2021/03/04 06:03:36;;;;;;;69.35;32.10;;;5.30;96.40;;;;;;5067415;28;20112;-39
2021/03/04 06:06:02;;;;;;;68.18;32.13;;;5.20;96.30;;;;;;5067495;28;20131;-40
2021/03/04 06:08:28;;;;;;;72.40;33.83;;;5.20;96.40;;;;;;5066728;28;20165;-40
2021/03/04 06:10:53;;;;;;;75.80;35.63;;;5.20;96.30;;;;;;5067259;28;20528;-36
2021/03/04 06:13:19;;;;;;;78.25;34.92;;;5.20;96.30;;;;;;5066768;28;20078;-37
2021/03/04 06:15:44;;;;;;;82.85;37.40;;;5.20;96.20;;;;;;5066616;28;20021;-39
2021/03/04 06:18:10;;;;;;;76.03;34.35;;;5.20;96.20;;;;;;5066973;28;20060;-39
2021/03/04 06:20:37;;;;;;;69.70;32.47;;;5.10;96.30;;;;;;5067131;28;20499;-39
2021/03/04 06:23:03;;;;;;;61.88;29.60;;;5.10;96.30;;;;;;5066659;28;20059;-36
2021/03/04 06:25:29;;;;;;;74.05;32.97;;;5.20;96.40;;;;;;5067267;28;20747;-38
2021/03/04 06:27:54;;;;;;;73.93;35.92;;;5.20;96.40;;;;;;5067221;28;20028;-39
2021/03/04 06:30:20;;;;;;;76.47;34.67;;;5.10;96.30;;;;;;5063597;28;20035;-36
2021/03/04 06:33:01;;;;;;;72.88;34.05;;;5.10;96.30;;;;;;5059633;28;20460;-37
2021/03/04 06:35:34;;;;;;;70.70;32.35;;;5.10;96.40;;;;;;5064615;28;20024;-37
2021/03/04 06:38:11;;;;;;;68.45;30.08;;;5.10;96.40;;;;;;5065629;28;20039;-38
2021/03/04 06:40:37;;;;;;;70.28;32.20;;;5.10;96.50;;;;;;5065781;28;20041;-40
2021/03/04 06:43:02;;;;;;;64.28;30.52;;;5.10;96.40;;;;;;5065900;28;20035;-40
2021/03/04 06:45:35;;;;;;;76.90;34.00;;;5.10;96.40;;;;;;5065862;28;20406;-39
2021/03/04 06:48:08;;;;;;;67.63;29.77;;;5.10;96.40;;;;;;5065138;28;20033;-37
2021/03/04 06:50:37;;;;;;;62.58;27.25;;;5.10;96.50;;;;;;5064134;28;20105;-39
2021/03/04 06:53:20;;;;;;;59.22;27.83;;;5.10;96.50;;;;;;5064306;28;20048;-40
2021/03/04 06:56:05;;;;;;;69.15;29.92;;;5.10;96.40;;;;;;5063879;28;20055;-38
2021/03/04 06:58:32;;;;;;;64.57;30.85;;;5.20;96.40;;;;;;5063872;28;20029;-40
2021/03/04 07:01:04;;;;;;;78.10;34.25;;;5.20;96.40;;;;;;5065534;28;20559;-40
2021/03/04 07:03:53;;;;;;;68.35;30.42;;;5.20;96.40;;;;;;5065548;28;20025;-41
2021/03/04 07:06:19;;;;;;;75.03;32.90;;;5.10;96.30;;;;;;5064694;28;20016;-39
2021/03/04 07:08:46;;;;;;;65.80;29.73;;;5.10;96.30;;;;;;5065207;28;20119;-39
2021/03/04 07:11:15;;;;;;;73.50;31.58;;;5.10;96.30;;;;;;5064401;28;20024;-38
2021/03/04 07:13:42;;;;;;;68.72;30.40;;;5.10;96.30;;;;;;5065188;28;20036;-39
2021/03/04 07:16:12;;;;;;;62.78;28.00;;;5.10;96.30;;;;;;5065395;28;20020;-39
2021/03/04 07:18:58;;;;;;;69.35;32.22;;;5.10;96.30;;;;;;5063802;28;20024;-37
2021/03/04 07:21:33;;;;;;;68.43;29.33;;;5.20;96.30;;;;;;5065363;28;20020;-39
2021/03/04 07:24:03;;;;;;;63.38;27.67;;;5.20;96.30;;;;;;5065941;28;20475;-40
2021/03/04 07:26:29;;;;;;;62.45;26.95;;;5.10;96.30;;;;;;5065192;28;20111;-37
2021/03/04 07:28:56;;;;;;;51.63;24.30;;;5.20;96.30;;;;;;5065768;28;20029;-39
2021/03/04 07:31:21;;;;;;;58.40;25.98;;;5.20;96.30;;;;;;5063729;28;20535;-41
2021/03/04 07:33:49;;;;;;;62.00;27.10;;;5.30;96.60;;;;;;5060883;28;20265;-40
2021/03/04 07:36:19;;;;;;;53.03;24.10;;;5.30;96.20;;;;;;5065351;28;20483;-39
2021/03/04 07:38:59;;;;;;;64.05;26.85;;;5.30;96.20;;;;;;5065033;28;20033;-40
2021/03/04 07:41:45;;;;;;;69.05;30.13;;;5.30;96.10;;;;;;5065621;28;20439;-40
2021/03/04 07:44:24;;;;;;;74.55;31.13;;;5.30;96.10;;;;;;5055238;28;20024;-39
2021/03/04 07:47:01;;;;;;;78.05;31.95;;;5.20;96.00;;;;;;5064909;28;20078;-40
2021/03/04 07:49:33;;;;;;;66.53;28.90;;;5.30;96.00;;;;;;5062064;28;20054;-37
2021/03/04 07:52:12;;;;;;;71.80;30.17;;;5.30;96.10;;;;;;5062539;28;20048;-40
2021/03/04 07:54:41;;;;;;;73.18;28.77;;;5.20;96.10;;;;;;5062782;28;20029;-38
2021/03/04 07:57:09;;;;;;;71.28;29.25;;;5.20;96.10;;;;;;5062586;28;20025;-39
2021/03/04 07:59:52;;;;;;;66.68;27.75;;;5.30;96.20;;;;;;5052863;28;20111;-39
2021/03/04 08:02:26;;;;;;;74.78;30.33;;;5.30;96.10;;;;;;5064215;28;20013;-36
2021/03/04 08:05:03;;;;;;;64.32;25.65;;;5.30;96.10;;;;;;5054748;28;20032;-40
2021/03/04 08:07:29;;;;;;;61.55;25.60;;;5.30;96.10;;;;;;5064775;28;20024;-37
2021/03/04 08:10:18;;;;;;;66.25;26.48;;;5.30;96.10;;;;;;5065216;28;20031;-39
2021/03/04 08:12:51;;;;;;;63.83;26.98;;;5.40;96.10;;;;;;5064998;28;20150;-38
2021/03/04 08:15:17;;;;;;;;;;;5.40;96.00;;;;;;5055325;28;20078;-39
2021/03/04 08:17:44;;;;;;;74.80;28.17;;;5.40;96.00;;;;;;5064533;28;19955;-37
2021/03/04 08:20:18;;;;;;;76.75;28.77;;;5.40;95.90;;;;;;5065362;28;20107;-36
2021/03/04 08:22:49;;;;;;;69.53;29.60;;;5.40;95.90;;;;;;5064237;28;20094;-39
2021/03/04 08:25:23;;;;;;;74.85;31.50;;;5.40;96.00;;;;;;5064746;28;20052;-39
2021/03/04 08:27:56;;;;;;;82.53;32.95;;;5.30;96.00;;;;;;5064438;28;20444;-39
2021/03/04 08:30:40;;;;;;;92.38;34.70;;;5.30;96.00;;;;;;5055739;28;20028;-40
2021/03/04 08:33:12;;;;;;;82.97;31.05;;;5.20;96.10;;;;;;5064452;28;20454;-38
2021/03/04 08:35:46;;;;;;;79.55;30.73;;;5.30;96.20;;;;;;5064627;28;20025;-34
2021/03/04 08:38:21;;;;;;;85.88;33.22;;;5.30;96.20;;;;;;5059885;28;20032;-33
2021/03/04 08:40:54;;;;;;;77.18;30.35;;;5.30;96.20;;;;;;5064485;28;20017;-38
2021/03/04 08:43:22;;;;;;;88.25;32.58;;;5.30;96.10;;;;;;5064297;28;20024;-38
2021/03/04 08:45:56;;;;;;;80.70;31.15;;;5.40;96.10;;;;;;5064966;28;20386;-37
2021/03/04 08:48:22;;;;;;;87.55;32.13;;;5.30;96.10;;;;;;5065127;28;20436;-39
2021/03/04 08:50:53;;;;;;;84.50;31.70;;;5.30;96.10;;;;;;5062685;28;20488;-39
2021/03/04 08:53:20;;;;;;;71.70;29.90;;;5.30;96.20;;;;;;5051097;28;20449;-39
2021/03/04 08:55:54;;;;;;;79.15;31.60;;;5.30;96.20;;;;;;5062067;28;20059;-39
2021/03/04 08:58:21;;;;;;;70.40;28.52;;;5.30;96.20;;;;;;5064263;28;20032;-39
2021/03/04 09:00:55;;;;;;;64.93;27.42;;;5.30;96.20;;;;;;5063761;28;20128;-39
2021/03/04 09:03:22;;;;;;;64.05;27.55;;;5.30;96.20;;;;;;5063315;28;20025;-38
2021/03/04 09:05:48;;;;;;;77.50;29.80;;;5.30;96.30;;;;;;5063828;28;20082;-39
2021/03/04 09:08:14;;;;;;;64.43;26.25;;;5.30;96.30;;;;;;5064381;28;20021;-40
2021/03/04 09:10:45;;;;;;;72.60;28.80;;;5.30;96.20;;;;;;5063868;28;20028;-37
2021/03/04 09:13:17;;;;;;;70.28;29.40;;;5.30;96.20;;;;;;5064836;28;20391;-39
2021/03/04 09:15:56;;;;;;;66.38;26.77;;;5.30;96.10;;;;;;5065538;28;20036;-39
2021/03/04 09:18:23;;;;;;;72.40;28.13;;;5.20;96.10;;;;;;5067366;28;20040;-39
2021/03/04 09:20:50;;;;;;;57.85;25.58;;;5.30;96.10;;;;;;5067993;28;20510;-39
2021/03/04 09:23:16;;;;;;;63.92;25.38;;;5.30;96.30;;;;;;5068192;28;20189;-40
2021/03/04 09:25:42;;;;;;;54.65;23.52;;;5.30;96.00;;;;;;5067291;28;20156;-41
2021/03/04 09:28:15;;;;;;;57.90;24.70;;;5.30;96.00;;;;;;5068449;28;20524;-38
2021/03/04 09:30:41;;;;;;;57.55;24.00;;;5.30;96.00;;;;;;5068036;28;20112;-38
2021/03/04 09:33:21;;;;;;;62.88;25.20;;;5.30;96.00;;;;;;5067889;28;20095;-40
2021/03/04 09:35:55;;;;;;;62.13;24.13;;;5.30;95.90;;;;;;5067844;28;20940;-40
2021/03/04 09:38:21;;;;;;;65.45;25.83;;;5.30;95.80;;;;;;5067528;28;20028;-38
2021/03/04 09:40:47;;;;;;;59.65;23.80;;;5.30;95.90;;;;;;5067926;28;20032;-40
2021/03/04 09:43:18;;;;;;;59.40;24.02;;;5.30;95.90;;;;;;5068028;28;20474;-39
2021/03/04 09:45:45;;;;;;;52.42;21.42;;;5.30;96.00;;;;;;5067709;28;20086;-42
2021/03/04 09:48:12;;;;;;;53.28;22.90;;;5.40;96.00;;;;;;5067821;28;20122;-40
2021/03/04 09:50:37;;;;;;;51.00;21.05;;;5.40;95.90;;;;;;5067972;28;20371;-41
2021/03/04 09:53:05;;;;;;;59.28;23.90;;;5.50;95.90;;;;;;5066807;28;20052;-41
2021/03/04 09:55:45;;;;;;;59.90;25.02;;;5.60;95.80;;;;;;5067404;28;20115;-38
2021/03/04 09:58:15;;;;;;;49.70;21.17;;;5.60;95.60;;;;;;5064807;28;20082;-41
2021/03/04 10:00:41;;;;;;;56.90;23.23;;;5.60;95.40;;;;;;5067447;28;20539;-42
2021/03/04 10:03:12;;;;;;;49.90;22.05;;;5.60;95.40;;;;;;5067767;28;20114;-41
2021/03/04 10:05:58;;;;;;;49.47;20.70;;;5.60;95.30;;;;;;5067827;28;20506;-37
2021/03/04 10:08:23;;;;;;;50.65;21.92;;;5.60;95.40;;;;;;5064521;28;20063;-40
2021/03/04 10:10:50;;;;;;;46.35;20.00;;;5.50;95.30;;;;;;5067603;28;20418;-40
2021/03/04 10:13:29;;;;;;;45.20;20.02;;;5.60;95.40;;;;;;5067046;28;20036;-38
2021/03/04 10:15:55;;;;;;;44.08;18.33;;;5.60;95.50;;;;;;5068119;28;20028;-39
2021/03/04 10:18:21;;;;;;;42.75;18.83;;;5.60;95.40;;;;;;5067215;28;20472;-37
2021/03/04 10:20:47;;;;;;;39.13;17.42;;;5.60;95.40;;;;;;5066539;28;20139;-38
2021/03/04 10:23:16;;;;;;;40.08;18.52;;;5.60;95.30;;;;;;5066288;28;20129;-37
2021/03/04 10:25:43;;;;;;;34.60;16.80;;;5.70;95.30;;;;;;5066317;28;20021;-40
2021/03/04 10:28:09;;;;;;;30.60;15.15;;;5.70;95.20;;;;;;5066368;28;20115;-38
2021/03/04 10:30:36;;;;;;;30.75;15.48;;;5.70;95.10;;;;;;5067210;28;20100;-38
2021/03/04 10:33:06;;;;;;;33.90;15.07;;;5.70;95.00;;;;;;5067084;28;20070;-41
2021/03/04 10:35:32;;;;;;;33.55;16.58;;;5.70;95.00;;;;;;5066594;28;20021;-40
2021/03/04 10:37:58;;;;;;;37.13;17.30;;;5.80;95.00;;;;;;5067358;28;20154;-40
2021/03/04 10:40:26;;;;;;;36.08;16.77;;;5.80;94.90;;;;;;5067380;28;20586;-40
2021/03/04 10:42:52;;;;;;;32.75;15.70;;;5.80;95.00;;;;;;5066446;28;20036;-38
2021/03/04 10:45:18;;;;;;;32.08;15.57;;;5.80;94.90;;;;;;5066594;28;20067;-40
2021/03/04 10:47:46;;;;;;;29.40;14.40;;;5.90;94.90;;;;;;5066507;28;20021;-43
2021/03/04 10:50:16;;;;;;;30.58;15.23;;;5.90;94.70;;;;;;5066023;28;20017;-39
2021/03/04 10:52:41;;;;;;;27.95;13.70;;;5.90;94.70;;;;;;5066243;28;20452;-40
2021/03/04 10:55:08;;;;;;;27.58;13.95;;;5.90;94.60;;;;;;5067741;28;20578;-40
2021/03/04 10:57:35;;;;;;;22.35;11.25;;;5.90;94.70;;;;;;5066232;28;20040;-39
2021/03/04 11:00:00;;;;;;;24.95;12.27;;;5.90;94.70;;;;;;5066803;28;20032;-40
2021/03/04 11:02:28;;;;;;;28.90;14.25;;;5.90;94.60;;;;;;5065882;28;20069;-40
2021/03/04 11:04:54;;;;;;;27.35;14.75;;;5.90;94.60;;;;;;5065275;28;20024;-39
2021/03/04 11:07:19;;;;;;;28.48;14.30;;;5.90;94.50;;;;;;5065451;28;20028;-40
2021/03/04 11:09:45;;;;;;;28.83;14.02;;;5.90;94.40;;;;;;5064802;28;20047;-41
2021/03/04 11:12:11;;;;;;;26.92;13.00;;;5.90;94.40;;;;;;5066159;28;20077;-39
2021/03/04 11:14:37;;;;;;;27.58;13.93;;;6.00;94.50;;;;;;5064814;28;20032;-40
2021/03/04 11:17:03;;;;;;;27.73;14.00;;;6.00;94.50;;;;;;5065304;28;20039;-38
2021/03/04 11:19:30;;;;;;;27.98;14.40;;;6.00;94.30;;;;;;5067709;28;20104;-38
2021/03/04 11:21:56;;;;;;;24.88;12.77;;;6.10;94.30;;;;;;5066662;28;20037;-40
2021/03/04 11:24:22;;;;;;;26.45;13.50;;;6.00;94.20;;;;;;5065183;28;20033;-40
2021/03/04 11:26:47;;;;;;;27.13;13.80;;;6.00;94.30;;;;;;5067580;28;20486;-39
2021/03/04 11:29:13;;;;;;;30.20;15.80;;;6.00;94.30;;;;;;5059995;28;20040;-38
2021/03/04 11:31:39;;;;;;;24.77;13.55;;;5.90;94.20;;;;;;5063782;28;20056;-39
2021/03/04 11:34:05;;;;;;;28.95;13.50;;;5.90;94.20;;;;;;5047900;28;20194;-41
2021/03/04 11:36:32;;;;;;;26.65;14.35;;;5.90;94.30;;;;;;5066043;28;20025;-38
2021/03/04 11:38:59;;;;;;;25.52;13.27;;;5.90;94.40;;;;;;5065081;28;20040;-36
2021/03/04 11:41:25;;;;;;;20.52;11.68;;;5.80;94.40;;;;;;5065078;28;20027;-39
2021/03/04 11:43:50;;;;;;;21.05;11.25;;;5.80;94.50;;;;;;5067135;28;20594;-37
2021/03/04 11:46:18;;;;;;;20.88;10.35;;;5.80;94.50;;;;;;5066175;28;20227;-39
2021/03/04 11:48:44;;;;;;;18.00;9.77;;;5.90;94.50;;;;;;5065510;28;20028;-39
2021/03/04 11:51:10;;;;;;;17.67;8.80;;;5.80;94.50;;;;;;5064646;28;20040;-37
2021/03/04 11:53:36;;;;;;;15.75;8.57;;;5.90;94.60;;;;;;5063786;28;20067;-39
2021/03/04 11:56:01;;;;;;;13.10;7.80;;;5.90;94.50;;;;;;5066309;28;20758;-39
2021/03/04 11:58:27;;;;;;;14.32;8.02;;;6.00;94.20;;;;;;5064462;28;20182;-43
2021/03/04 12:00:54;;;;;;;15.77;9.18;;;6.00;94.10;;;;;;5063394;28;20115;-40
2021/03/04 12:03:20;;;;;;;13.88;8.13;;;6.00;94.00;;;;;;5065350;28;20024;-38
2021/03/04 12:05:46;;;;;;;13.68;8.90;;;6.00;94.00;;;;;;5064904;28;20357;-39
2021/03/04 12:08:11;;;;;;;12.27;7.43;;;5.90;93.70;;;;;;5065157;28;20029;-39
2021/03/04 12:10:37;;;;;;;14.05;8.98;;;5.90;93.70;;;;;;5064785;28;20033;-39
2021/03/04 12:13:03;;;;;;;12.50;7.90;;;5.90;93.70;;;;;;5064387;28;20036;-38
2021/03/04 12:15:29;;;;;;;10.65;6.93;;;6.00;93.60;;;;;;5065176;28;20431;-39
2021/03/04 12:17:55;;;;;;;11.75;7.18;;;6.00;93.40;;;;;;5065916;28;20178;-41
2021/03/04 12:20:20;;;;;;;8.77;6.63;;;6.10;93.50;;;;;;5064874;28;20020;-39
2021/03/04 12:22:46;;;;;;;8.98;6.55;;;6.20;93.50;;;;;;5064878;28;20487;-39
2021/03/04 12:25:11;;;;;;;10.80;6.75;;;6.40;93.60;;;;;;5065133;28;20049;-39
2021/03/04 12:27:37;;;;;;;10.65;7.15;;;6.50;93.10;;;;;;5064065;28;20105;-39
2021/03/04 12:30:06;;;;;;;8.77;6.45;;;6.60;92.80;;;;;;5061951;28;20016;-37
2021/03/04 12:32:33;;;;;;;9.20;6.10;;;6.70;92.70;;;;;;5064359;28;20123;-38
2021/03/04 12:34:59;;;;;;;8.40;5.50;;;6.80;92.20;;;;;;5064517;28;20029;-39
2021/03/04 12:37:25;;;;;;;8.27;5.72;;;6.80;92.00;;;;;;5064595;28;20024;-39
2021/03/04 12:39:53;;;;;;;7.65;5.30;;;6.80;92.00;;;;;;5065112;28;20020;-39
2021/03/04 12:42:19;;;;;;;7.95;5.20;;;6.80;91.80;;;;;;5064377;28;20111;-37
2021/03/04 12:44:44;;;;;;;7.55;5.13;;;6.80;91.50;;;;;;5065013;28;20512;-40